createdAt,value
2019-05-18T00:01:35.454Z,13.03
2019-05-18T00:03:39.308Z,13.03
2019-05-18T00:05:43.076Z,12.96
2019-05-18T00:07:46.970Z,12.91
2019-05-18T00:09:50.797Z,12.87
2019-05-18T00:11:54.598Z,12.85
2019-05-18T00:13:58.387Z,12.90
2019-05-18T00:16:02.281Z,12.93
2019-05-18T00:18:06.236Z,12.94
2019-05-18T00:20:10.475Z,12.93
2019-05-18T00:22:14.213Z,12.91
2019-05-18T00:24:18.089Z,12.88
2019-05-18T00:26:22.918Z,12.84
2019-05-18T00:28:27.818Z,12.84
2019-05-18T00:30:31.663Z,12.87
2019-05-18T00:32:37.472Z,12.89
2019-05-18T00:34:41.217Z,12.91
2019-05-18T00:36:46.995Z,12.93
2019-05-18T00:38:50.768Z,12.95
2019-05-18T00:40:54.661Z,12.96
2019-05-18T00:42:58.373Z,12.97
2019-05-18T00:45:02.182Z,12.94
2019-05-18T00:47:06.087Z,12.94
2019-05-18T00:49:09.888Z,12.93
2019-05-18T00:51:13.709Z,12.90
2019-05-18T00:53:17.578Z,12.85
2019-05-18T00:55:21.303Z,12.72
2019-05-18T00:57:25.104Z,12.59
2019-05-18T00:59:28.906Z,12.47
2019-05-18T01:01:32.718Z,12.38
2019-05-18T01:03:36.555Z,12.28
2019-05-18T01:05:40.330Z,12.19
2019-05-18T01:07:44.153Z,12.10
2019-05-18T01:09:48.146Z,12.06
2019-05-18T01:11:52.968Z,12.01
2019-05-18T01:13:56.760Z,11.98
2019-05-18T01:16:00.653Z,11.98
2019-05-18T01:18:04.610Z,12.01
2019-05-18T01:20:09.245Z,12.03
2019-05-18T01:22:13.025Z,12.05
2019-05-18T01:24:16.800Z,12.08
2019-05-18T01:26:20.627Z,12.10
2019-05-18T01:28:27.827Z,12.13
2019-05-18T01:30:31.667Z,12.10
2019-05-18T01:32:35.479Z,12.06
2019-05-18T01:34:39.294Z,12.02
2019-05-18T01:36:43.109Z,11.97
2019-05-18T01:38:46.927Z,11.93
2019-05-18T01:40:50.694Z,11.87
2019-05-18T01:42:54.519Z,11.79
2019-05-18T01:44:58.323Z,11.69
2019-05-18T01:47:02.214Z,11.66
2019-05-18T01:49:06.031Z,11.71
2019-05-18T01:51:09.913Z,11.73
2019-05-18T01:53:13.738Z,11.73
2019-05-18T01:55:18.565Z,11.73
2019-05-18T01:57:22.363Z,11.75
2019-05-18T01:59:26.161Z,11.75
2019-05-18T02:01:29.984Z,11.71
2019-05-18T02:03:33.828Z,11.67
2019-05-18T02:05:37.577Z,11.62
2019-05-18T02:07:41.499Z,11.60
2019-05-18T02:09:45.381Z,11.57
2019-05-18T02:11:49.193Z,11.60
2019-05-18T02:13:53.030Z,11.60
2019-05-18T02:15:56.784Z,11.63
2019-05-18T02:18:00.680Z,11.64
2019-05-18T02:20:05.254Z,11.62
2019-05-18T02:22:09.170Z,11.54
2019-05-18T02:24:14.041Z,11.44
2019-05-18T02:26:17.904Z,11.30
2019-05-18T02:28:21.657Z,11.18
2019-05-18T02:30:25.456Z,11.11
2019-05-18T02:32:30.207Z,11.12
2019-05-18T02:34:33.984Z,11.15
2019-05-18T02:36:38.823Z,11.20
2019-05-18T02:38:42.615Z,11.25
2019-05-18T02:40:47.975Z,11.27
2019-05-18T02:42:51.839Z,11.23
2019-05-18T02:44:56.661Z,11.16
2019-05-18T02:47:00.483Z,11.12
2019-05-18T02:49:04.271Z,11.07
2019-05-18T02:51:11.417Z,11.04
2019-05-18T02:53:13.754Z,11.02
2019-05-18T02:55:17.828Z,11.00
2019-05-18T02:57:21.581Z,10.95
2019-05-18T02:59:26.375Z,10.87
2019-05-18T03:01:30.261Z,10.79
2019-05-18T03:03:34.014Z,10.77
2019-05-18T03:05:37.869Z,10.79
2019-05-18T03:07:41.607Z,10.79
2019-05-18T03:09:45.469Z,10.77
2019-05-18T03:11:49.358Z,10.72
2019-05-18T03:13:53.281Z,10.71
2019-05-18T03:15:58.026Z,10.68
2019-05-18T03:18:01.919Z,10.66
2019-05-18T03:20:06.045Z,10.64
2019-05-18T03:22:09.857Z,10.65
2019-05-18T03:24:13.658Z,10.63
2019-05-18T03:26:17.528Z,10.61
2019-05-18T03:28:21.275Z,10.60
2019-05-18T03:30:25.170Z,10.60
2019-05-18T03:32:28.893Z,10.56
2019-05-18T03:34:32.676Z,10.53
2019-05-18T03:36:37.485Z,10.51
2019-05-18T03:38:42.235Z,10.50
2019-05-18T03:40:46.026Z,10.50
2019-05-18T03:42:49.848Z,10.47
2019-05-18T03:44:53.770Z,10.41
2019-05-18T03:46:58.580Z,10.37
2019-05-18T03:49:02.371Z,10.36
2019-05-18T03:51:06.862Z,10.38
2019-05-18T03:53:11.608Z,10.43
2019-05-18T03:55:15.621Z,10.43
2019-05-18T03:57:19.349Z,10.45
2019-05-18T03:59:23.114Z,10.46
2019-05-18T04:01:26.931Z,10.49
2019-05-18T04:03:30.736Z,10.50
2019-05-18T04:05:34.606Z,10.52
2019-05-18T04:07:38.343Z,10.52
2019-05-18T04:09:42.165Z,10.53
2019-05-18T04:11:47.901Z,10.51
2019-05-18T04:13:51.718Z,10.49
2019-05-18T04:15:55.487Z,10.46
2019-05-18T04:17:59.328Z,10.43
2019-05-18T04:20:03.450Z,10.48
2019-05-18T04:22:07.353Z,10.53
2019-05-18T04:24:11.136Z,10.52
2019-05-18T04:26:14.928Z,10.54
2019-05-18T04:28:18.741Z,10.56
2019-05-18T04:30:23.633Z,10.59
2019-05-18T04:32:27.365Z,10.62
2019-05-18T04:34:31.258Z,10.68
2019-05-18T04:36:35.144Z,10.68
2019-05-18T04:38:38.985Z,10.71
2019-05-18T04:40:43.798Z,10.74
2019-05-18T04:42:47.775Z,10.74
2019-05-18T04:44:51.702Z,10.77
2019-05-18T04:46:55.420Z,10.79
2019-05-18T04:48:59.222Z,10.77
2019-05-18T04:51:03.012Z,10.73
2019-05-18T04:53:06.824Z,10.76
2019-05-18T04:55:10.880Z,10.81
2019-05-18T04:57:15.651Z,10.88
2019-05-18T04:59:19.475Z,10.87
2019-05-18T05:01:23.358Z,10.83
2019-05-18T05:03:27.174Z,10.81
2019-05-18T05:05:30.981Z,10.82
2019-05-18T05:07:36.803Z,10.84
2019-05-18T05:09:40.621Z,10.85
2019-05-18T05:11:44.442Z,10.91
2019-05-18T05:13:48.321Z,10.94
2019-05-18T05:15:52.132Z,10.96
2019-05-18T05:17:55.951Z,10.97
2019-05-18T05:19:59.759Z,10.97
2019-05-18T05:22:03.551Z,11.00
2019-05-18T05:24:07.422Z,11.07
2019-05-18T05:26:11.171Z,11.12
2019-05-18T05:28:14.962Z,11.17
2019-05-18T05:30:18.903Z,11.23
2019-05-18T05:32:23.671Z,11.27
2019-05-18T05:34:27.517Z,11.35
2019-05-18T05:36:31.328Z,11.42
2019-05-18T05:38:35.103Z,11.47
2019-05-18T05:40:38.888Z,11.56
2019-05-18T05:42:42.686Z,11.66
2019-05-18T05:44:46.502Z,11.75
2019-05-18T05:46:50.317Z,11.84
2019-05-18T05:48:54.119Z,11.91
2019-05-18T05:50:57.905Z,12.00
2019-05-18T05:53:01.732Z,12.09
2019-05-18T05:55:06.088Z,12.17
2019-05-18T05:57:10.843Z,12.26
2019-05-18T05:59:14.660Z,12.33
2019-05-18T06:01:18.457Z,12.41
2019-05-18T06:03:22.295Z,12.48
2019-05-18T06:05:26.138Z,12.56
2019-05-18T06:07:29.942Z,12.64
2019-05-18T06:09:33.686Z,12.71
2019-05-18T06:11:37.471Z,12.79
2019-05-18T06:13:41.292Z,12.88
2019-05-18T06:15:45.082Z,12.96
2019-05-18T06:17:51.847Z,13.05
2019-05-18T06:19:55.669Z,13.13
2019-05-18T06:21:59.453Z,13.23
2019-05-18T06:24:03.346Z,13.32
2019-05-18T06:26:09.152Z,13.42
2019-05-18T06:28:12.915Z,13.52
2019-05-18T06:30:17.387Z,13.63
2019-05-18T06:32:21.132Z,13.74
2019-05-18T06:34:25.864Z,13.85
2019-05-18T06:36:30.685Z,13.97
2019-05-18T06:38:34.497Z,14.07
2019-05-18T06:40:38.342Z,14.16
2019-05-18T06:42:42.111Z,14.25
2019-05-18T06:44:46.933Z,14.35
2019-05-18T06:46:50.735Z,14.44
2019-05-18T06:48:54.537Z,14.53
2019-05-18T06:51:06.640Z,14.61
2019-05-18T06:53:03.860Z,14.71
2019-05-18T06:55:08.142Z,14.83
2019-05-18T06:57:15.168Z,14.92
2019-05-18T06:59:19.526Z,14.96
2019-05-18T07:01:23.288Z,15.03
2019-05-18T07:03:27.183Z,15.13
2019-05-18T07:05:30.902Z,15.27
2019-05-18T07:07:34.696Z,15.41
2019-05-18T07:09:38.516Z,15.54
2019-05-18T07:11:42.326Z,15.68
2019-05-18T07:13:46.131Z,15.78
2019-05-18T07:15:49.892Z,15.91
2019-05-18T07:17:55.670Z,16.02
2019-05-18T07:20:00.512Z,16.13
2019-05-18T07:22:04.284Z,16.23
2019-05-18T07:24:08.092Z,16.35
2019-05-18T07:26:11.897Z,16.48
2019-05-18T07:28:15.732Z,16.62
2019-05-18T07:30:19.661Z,16.71
2019-05-18T07:32:23.409Z,16.81
2019-05-18T07:34:27.525Z,16.94
2019-05-18T07:36:31.340Z,17.09
2019-05-18T07:38:35.125Z,17.22
2019-05-18T07:40:38.989Z,17.31
2019-05-18T07:42:42.723Z,17.39
2019-05-18T07:44:46.547Z,17.48
2019-05-18T07:46:50.345Z,17.58
2019-05-18T07:48:54.151Z,17.72
2019-05-18T07:50:57.963Z,17.88
2019-05-18T07:53:01.752Z,18.02
2019-05-18T07:55:06.186Z,18.15
2019-05-18T07:57:09.979Z,18.30
2019-05-18T07:59:13.785Z,18.46
2019-05-18T08:01:17.574Z,18.60
2019-05-18T08:03:21.388Z,18.75
2019-05-18T08:05:25.209Z,18.92
2019-05-18T08:07:29.082Z,19.10
2019-05-18T08:09:32.951Z,19.23
2019-05-18T08:11:36.699Z,19.34
2019-05-18T08:13:40.494Z,19.36
2019-05-18T08:15:44.390Z,19.38
2019-05-18T08:17:48.249Z,19.46
2019-05-18T08:19:53.086Z,19.56
2019-05-18T08:21:56.901Z,19.58
2019-05-18T08:24:07.616Z,19.67
2019-05-18T08:26:11.416Z,19.69
2019-05-18T08:28:15.201Z,19.64
2019-05-18T08:30:20.190Z,19.66
2019-05-18T08:32:23.927Z,19.69
2019-05-18T08:34:27.819Z,19.74
2019-05-18T08:36:31.735Z,19.71
2019-05-18T08:38:35.657Z,19.74
2019-05-18T08:40:39.675Z,19.80
2019-05-18T08:42:43.561Z,19.93
2019-05-18T08:44:47.373Z,20.11
2019-05-18T08:46:51.194Z,20.31
2019-05-18T08:48:56.003Z,20.49
2019-05-18T08:50:59.823Z,20.71
2019-05-18T08:53:03.596Z,20.83
2019-05-18T08:55:09.215Z,20.96
2019-05-18T08:57:13.000Z,21.10
2019-05-18T08:59:16.758Z,21.28
2019-05-18T09:01:20.569Z,21.43
2019-05-18T09:03:25.380Z,21.53
2019-05-18T09:05:29.398Z,21.63
2019-05-18T09:07:33.198Z,21.77
2019-05-18T09:09:36.995Z,21.89
2019-05-18T09:11:40.813Z,22.00
2019-05-18T09:13:44.866Z,22.10
2019-05-18T09:15:49.669Z,22.22
2019-05-18T09:17:53.451Z,22.22
2019-05-18T09:19:57.244Z,22.22
2019-05-18T09:22:01.035Z,22.33
2019-05-18T09:24:04.955Z,22.43
2019-05-18T09:26:08.850Z,22.43
2019-05-18T09:28:12.844Z,22.41
2019-05-18T09:30:17.125Z,22.55
2019-05-18T09:32:20.965Z,22.60
2019-05-18T09:34:24.777Z,22.69
2019-05-18T09:36:28.624Z,22.75
2019-05-18T09:38:33.302Z,22.72
2019-05-18T09:40:37.340Z,22.62
2019-05-18T09:42:41.136Z,22.64
2019-05-18T09:44:44.957Z,22.67
2019-05-18T09:46:48.813Z,22.69
2019-05-18T09:48:52.650Z,22.78
2019-05-18T09:50:56.472Z,22.86
2019-05-18T09:53:00.331Z,23.06
2019-05-18T09:55:04.291Z,23.27
2019-05-18T09:57:08.090Z,23.44
2019-05-18T09:59:11.852Z,23.46
2019-05-18T10:01:15.774Z,23.50
2019-05-18T10:03:19.638Z,23.61
2019-05-18T10:05:23.453Z,23.75
2019-05-18T10:07:27.268Z,23.85
2019-05-18T10:09:38.776Z,23.98
2019-05-18T10:11:38.798Z,24.08
2019-05-18T10:13:43.704Z,24.18
2019-05-18T10:15:47.522Z,24.18
2019-05-18T10:17:51.422Z,24.10
2019-05-18T10:19:55.408Z,24.17
2019-05-18T10:21:59.244Z,24.31
2019-05-18T10:24:03.111Z,24.42
2019-05-18T10:26:06.932Z,24.52
2019-05-18T10:28:10.727Z,24.69
2019-05-18T10:30:14.901Z,24.80
2019-05-18T10:32:19.667Z,24.93
2019-05-18T10:34:23.463Z,25.04
2019-05-18T10:36:29.314Z,25.15
2019-05-18T10:38:33.125Z,25.27
2019-05-18T10:40:37.019Z,25.43
2019-05-18T10:42:40.895Z,25.57
2019-05-18T10:44:44.715Z,25.71
2019-05-18T10:46:50.501Z,25.88
2019-05-18T10:48:54.419Z,25.91
2019-05-18T10:50:58.290Z,25.98
2019-05-18T10:53:02.211Z,26.08
2019-05-18T10:55:06.671Z,26.22
2019-05-18T10:57:10.438Z,26.28
2019-05-18T10:59:14.258Z,26.37
2019-05-18T11:01:18.031Z,26.58
2019-05-18T11:03:21.915Z,26.69
2019-05-18T11:05:25.813Z,26.84
2019-05-18T11:07:29.587Z,26.93
2019-05-18T11:09:33.340Z,26.96
2019-05-18T11:11:37.231Z,27.01
2019-05-18T11:13:41.136Z,27.05
2019-05-18T11:15:44.857Z,27.15
2019-05-18T11:17:48.748Z,27.26
2019-05-18T11:19:52.577Z,27.29
2019-05-18T11:21:56.383Z,27.17
2019-05-18T11:24:00.213Z,27.03
2019-05-18T11:26:04.090Z,26.98
2019-05-18T11:28:07.885Z,26.98
2019-05-18T11:30:13.675Z,27.04
2019-05-18T11:32:17.508Z,27.12
2019-05-18T11:34:22.252Z,27.31
2019-05-18T11:36:26.085Z,27.49
2019-05-18T11:38:29.868Z,27.64
2019-05-18T11:40:33.831Z,27.89
2019-05-18T11:42:37.742Z,28.07
2019-05-18T11:44:41.596Z,27.98
2019-05-18T11:46:45.515Z,27.73
2019-05-18T11:48:49.478Z,27.35
2019-05-18T11:50:53.392Z,27.10
2019-05-18T11:52:57.227Z,27.03
2019-05-18T11:55:01.084Z,27.03
2019-05-18T11:57:04.930Z,27.01
2019-05-18T11:59:08.855Z,27.15
2019-05-18T12:01:12.654Z,27.45
2019-05-18T12:03:16.520Z,27.64
2019-05-18T12:05:20.492Z,27.83
2019-05-18T12:07:24.320Z,27.93
2019-05-18T12:09:28.172Z,27.93
2019-05-18T12:11:31.957Z,27.93
2019-05-18T12:13:35.825Z,27.83
2019-05-18T12:15:39.620Z,27.78
2019-05-18T12:17:43.497Z,27.82
2019-05-18T12:19:47.348Z,27.74
2019-05-18T12:21:51.202Z,27.42
2019-05-18T12:23:54.966Z,27.07
2019-05-18T12:25:58.758Z,26.65
2019-05-18T12:28:02.625Z,26.34
2019-05-18T12:30:06.861Z,26.16
2019-05-18T12:32:10.674Z,26.10
2019-05-18T12:34:14.510Z,26.25
2019-05-18T12:36:18.299Z,26.56
2019-05-18T12:38:22.105Z,26.89
2019-05-18T12:40:26.390Z,27.37
2019-05-18T12:42:30.193Z,27.89
2019-05-18T12:44:33.942Z,28.39
2019-05-18T12:46:37.738Z,28.90
2019-05-18T12:48:41.744Z,29.40
2019-05-18T12:50:45.546Z,29.54
2019-05-18T12:52:49.598Z,29.46
2019-05-18T12:54:53.417Z,29.36
2019-05-18T12:56:58.186Z,29.34
2019-05-18T12:59:01.976Z,29.67
2019-05-18T13:01:05.922Z,30.17
2019-05-18T13:03:11.831Z,30.66
2019-05-18T13:05:16.786Z,30.76
2019-05-18T13:07:20.595Z,30.56
2019-05-18T13:09:24.512Z,30.16
2019-05-18T13:11:28.267Z,29.70
2019-05-18T13:13:32.094Z,29.24
2019-05-18T13:15:36.153Z,28.87
2019-05-18T13:17:40.047Z,28.57
2019-05-18T13:19:43.873Z,28.32
2019-05-18T13:21:48.637Z,28.28
2019-05-18T13:23:52.424Z,28.85
2019-05-18T13:25:56.237Z,29.06
2019-05-18T13:28:00.093Z,29.11
2019-05-18T13:30:04.394Z,28.98
2019-05-18T13:32:08.159Z,28.82
2019-05-18T13:34:11.951Z,28.69
2019-05-18T13:36:15.770Z,28.64
2019-05-18T13:38:19.577Z,28.59
2019-05-18T13:40:23.713Z,28.54
2019-05-18T13:42:27.568Z,28.49
2019-05-18T13:44:32.553Z,28.44
2019-05-18T13:46:36.332Z,28.28
2019-05-18T13:48:40.111Z,28.11
2019-05-18T13:50:44.848Z,27.90
2019-05-18T13:52:48.839Z,27.58
2019-05-18T13:55:02.768Z,27.42
2019-05-18T13:56:58.088Z,27.35
2019-05-18T13:59:01.939Z,27.26
2019-05-18T14:01:05.760Z,27.23
2019-05-18T14:03:09.510Z,27.27
2019-05-18T14:05:14.108Z,27.32
2019-05-18T14:07:17.902Z,27.33
2019-05-18T14:09:21.742Z,27.29
2019-05-18T14:11:25.552Z,27.24
2019-05-18T14:13:29.351Z,27.23
2019-05-18T14:15:34.168Z,27.23
2019-05-18T14:17:39.082Z,27.15
2019-05-18T14:19:42.916Z,27.15
2019-05-18T14:21:47.628Z,27.14
2019-05-18T14:23:51.439Z,27.08
2019-05-18T14:25:55.212Z,27.02
2019-05-18T14:27:59.037Z,26.88
2019-05-18T14:30:02.971Z,26.77
2019-05-18T14:32:06.750Z,26.69
2019-05-18T14:34:11.570Z,26.60
2019-05-18T14:36:15.445Z,26.53
2019-05-18T14:38:19.368Z,26.45
2019-05-18T14:40:23.245Z,26.47
2019-05-18T14:42:26.975Z,26.49
2019-05-18T14:44:30.878Z,26.42
2019-05-18T14:46:34.682Z,26.26
2019-05-18T14:48:38.498Z,26.09
2019-05-18T14:50:42.363Z,26.02
2019-05-18T14:52:46.782Z,25.93
2019-05-18T14:54:50.513Z,25.83
2019-05-18T14:56:54.353Z,25.75
2019-05-18T14:58:58.819Z,25.65
2019-05-18T15:01:02.720Z,25.53
2019-05-18T15:03:06.685Z,25.46
2019-05-18T15:05:11.728Z,25.39
2019-05-18T15:07:15.471Z,25.35
2019-05-18T15:09:19.298Z,25.37
2019-05-18T15:11:23.086Z,25.42
2019-05-18T15:13:26.944Z,25.41
2019-05-18T15:15:31.731Z,25.34
2019-05-18T15:17:35.602Z,25.29
2019-05-18T15:19:39.507Z,25.28
2019-05-18T15:21:43.339Z,25.31
2019-05-18T15:23:47.160Z,25.29
2019-05-18T15:25:51.488Z,25.22
2019-05-18T15:27:55.363Z,25.18
2019-05-18T15:29:59.189Z,25.16
2019-05-18T15:32:03.096Z,25.13
2019-05-18T15:34:06.948Z,25.08
2019-05-18T15:36:11.796Z,25.01
2019-05-18T15:38:15.673Z,24.95
2019-05-18T15:40:19.858Z,24.93
2019-05-18T15:42:23.686Z,24.89
2019-05-18T15:44:27.450Z,24.83
2019-05-18T15:46:32.266Z,24.76
2019-05-18T15:48:36.142Z,24.74
2019-05-18T15:50:40.047Z,24.66
2019-05-18T15:52:43.864Z,24.61
2019-05-18T15:54:47.674Z,24.56
2019-05-18T15:56:51.450Z,24.54
2019-05-18T15:58:55.268Z,24.56
2019-05-18T16:01:00.079Z,24.51
2019-05-18T16:03:03.900Z,24.51
2019-05-18T16:05:08.069Z,24.50
2019-05-18T16:07:12.058Z,24.47
2019-05-18T16:09:15.895Z,24.45
2019-05-18T16:11:19.626Z,24.44
2019-05-18T16:13:24.348Z,24.43
2019-05-18T16:15:28.145Z,24.43
2019-05-18T16:17:39.241Z,24.42
2019-05-18T16:19:37.396Z,24.41
2019-05-18T16:21:41.206Z,24.42
2019-05-18T16:23:45.023Z,24.36
2019-05-18T16:25:48.813Z,24.34
2019-05-18T16:27:52.600Z,24.35
2019-05-18T16:29:56.425Z,24.34
2019-05-18T16:32:00.223Z,24.33
2019-05-18T16:34:05.129Z,24.31
2019-05-18T16:36:08.950Z,24.29
2019-05-18T16:38:13.685Z,24.26
2019-05-18T16:40:17.725Z,24.21
2019-05-18T16:42:21.559Z,24.14
2019-05-18T16:44:25.284Z,24.09
2019-05-18T16:46:30.107Z,24.07
2019-05-18T16:48:34.108Z,24.07
2019-05-18T16:50:37.921Z,24.07
2019-05-18T16:52:41.722Z,24.07
2019-05-18T16:54:45.615Z,24.06
2019-05-18T16:56:49.431Z,24.03
2019-05-18T16:58:53.328Z,24.00
2019-05-18T17:00:57.143Z,23.94
2019-05-18T17:03:00.938Z,23.90
2019-05-18T17:05:05.410Z,23.88
2019-05-18T17:07:09.247Z,23.89
2019-05-18T17:09:13.277Z,23.90
2019-05-18T17:11:17.072Z,23.92
2019-05-18T17:13:20.885Z,23.91
2019-05-18T17:15:24.794Z,23.95
2019-05-18T17:17:28.503Z,23.95
2019-05-18T17:19:32.304Z,23.96
2019-05-18T17:21:36.085Z,23.91
2019-05-18T17:23:39.906Z,23.82
2019-05-18T17:25:43.725Z,23.77
2019-05-18T17:27:47.577Z,23.73
2019-05-18T17:29:51.328Z,23.68
2019-05-18T17:31:55.119Z,23.66
2019-05-18T17:33:58.915Z,23.64
2019-05-18T17:36:02.830Z,23.63
2019-05-18T17:38:06.727Z,23.60
2019-05-18T17:40:10.947Z,23.56
2019-05-18T17:42:17.701Z,23.54
2019-05-18T17:44:22.427Z,23.53
2019-05-18T17:46:26.247Z,23.52
2019-05-18T17:48:31.254Z,23.49
2019-05-18T17:50:36.071Z,23.45
2019-05-18T17:52:39.946Z,23.41
2019-05-18T17:54:43.717Z,23.38
2019-05-18T17:56:47.586Z,23.33
2019-05-18T17:58:51.349Z,23.31
2019-05-18T18:00:56.226Z,23.28
2019-05-18T18:03:00.051Z,23.26
2019-05-18T18:05:03.873Z,23.22
2019-05-18T18:07:07.665Z,23.19
2019-05-18T18:09:11.523Z,23.14
2019-05-18T18:11:15.330Z,23.07
2019-05-18T18:13:19.058Z,23.00
2019-05-18T18:15:22.854Z,22.89
2019-05-18T18:17:26.662Z,22.83
2019-05-18T18:19:30.471Z,22.74
2019-05-18T18:21:34.301Z,22.71
2019-05-18T18:23:38.481Z,22.68
2019-05-18T18:25:42.295Z,22.64
2019-05-18T18:27:46.092Z,22.62
2019-05-18T18:29:49.903Z,22.57
2019-05-18T18:31:53.704Z,22.53
2019-05-18T18:33:57.496Z,22.47
2019-05-18T18:36:01.384Z,22.44
2019-05-18T18:38:05.197Z,22.38
2019-05-18T18:40:09.373Z,22.30
2019-05-18T18:42:14.134Z,22.26
2019-05-18T18:44:17.945Z,22.24
2019-05-18T18:46:21.758Z,22.21
2019-05-18T18:48:26.462Z,22.22
2019-05-18T18:50:30.477Z,22.21
2019-05-18T18:52:34.358Z,22.18
2019-05-18T18:54:39.122Z,22.13
2019-05-18T18:56:42.925Z,22.10
2019-05-18T18:58:47.741Z,22.08
2019-05-18T19:00:51.552Z,22.06
2019-05-18T19:02:55.358Z,22.02
2019-05-18T19:05:00.069Z,21.99
2019-05-18T19:07:03.972Z,21.96
2019-05-18T19:09:08.025Z,21.91
2019-05-18T19:11:11.945Z,21.91
2019-05-18T19:13:15.714Z,21.94
2019-05-18T19:15:19.591Z,21.94
2019-05-18T19:17:23.427Z,21.89
2019-05-18T19:19:27.204Z,21.82
2019-05-18T19:21:31.112Z,21.75
2019-05-18T19:23:34.934Z,21.67
2019-05-18T19:25:38.746Z,21.57
2019-05-18T19:27:54.160Z,21.49
2019-05-18T19:29:48.978Z,21.44
2019-05-18T19:31:52.797Z,21.39
2019-05-18T19:33:56.669Z,21.39
2019-05-18T19:36:00.450Z,21.44
2019-05-18T19:38:04.210Z,21.45
2019-05-18T19:40:09.253Z,21.42
2019-05-18T19:42:17.399Z,21.37
2019-05-18T19:44:23.858Z,21.34
2019-05-18T19:46:26.713Z,21.26
2019-05-18T19:48:30.499Z,21.19
2019-05-18T19:50:34.311Z,21.12
2019-05-18T19:52:38.127Z,21.11
2019-05-18T19:54:41.912Z,21.14
2019-05-18T19:56:45.762Z,21.16
2019-05-18T19:58:49.487Z,21.15
2019-05-18T20:00:54.248Z,21.10
2019-05-18T20:02:58.067Z,21.07
2019-05-18T20:05:08.001Z,21.00
2019-05-18T20:07:07.390Z,20.92
2019-05-18T20:09:11.256Z,20.89
2019-05-18T20:11:14.990Z,20.84
2019-05-18T20:13:18.862Z,20.75
2019-05-18T20:15:22.655Z,20.67
2019-05-18T20:17:28.518Z,20.51
2019-05-18T20:19:39.096Z,20.39
2019-05-18T20:21:37.876Z,20.29
2019-05-18T20:23:42.618Z,20.20
2019-05-18T20:25:46.434Z,20.05
2019-05-18T20:27:50.226Z,20.02
2019-05-18T20:29:54.029Z,19.99
2019-05-18T20:31:57.832Z,20.00
2019-05-18T20:34:01.617Z,20.00
2019-05-18T20:36:05.428Z,20.07
2019-05-18T20:38:09.229Z,20.09
2019-05-18T20:40:13.111Z,20.02
2019-05-18T20:42:16.949Z,19.97
2019-05-18T20:44:20.757Z,19.97
2019-05-18T20:46:24.554Z,19.95
2019-05-18T20:48:28.414Z,19.94
2019-05-18T20:50:32.163Z,19.91
2019-05-18T20:52:36.043Z,19.88
2019-05-18T20:54:40.579Z,19.86
2019-05-18T20:56:45.424Z,19.87
2019-05-18T20:58:49.219Z,19.84
2019-05-18T21:00:53.005Z,19.84
2019-05-18T21:02:56.908Z,19.82
2019-05-18T21:05:01.649Z,19.78
2019-05-18T21:07:06.474Z,19.65
2019-05-18T21:09:10.342Z,19.51
2019-05-18T21:11:14.174Z,19.48
2019-05-18T21:13:17.989Z,19.49
2019-05-18T21:15:22.025Z,19.50
2019-05-18T21:17:25.801Z,19.50
2019-05-18T21:19:29.907Z,19.51
2019-05-18T21:21:33.820Z,19.49
2019-05-18T21:23:37.657Z,19.46
2019-05-18T21:25:41.439Z,19.38
2019-05-18T21:27:45.234Z,19.32
2019-05-18T21:29:49.033Z,19.20
2019-05-18T21:31:53.863Z,19.20
2019-05-18T21:33:57.647Z,19.25
2019-05-18T21:36:01.471Z,19.16
2019-05-18T21:38:05.278Z,19.06
2019-05-18T21:40:09.301Z,18.97
2019-05-18T21:42:13.074Z,18.85
2019-05-18T21:44:16.904Z,18.76
2019-05-18T21:46:20.668Z,18.65
2019-05-18T21:48:24.493Z,18.62
2019-05-18T21:50:28.280Z,18.62
2019-05-18T21:52:32.089Z,18.68
2019-05-18T21:54:36.949Z,18.77
2019-05-18T21:56:41.731Z,18.82
2019-05-18T21:58:45.616Z,18.83
2019-05-18T22:00:50.176Z,18.85
2019-05-18T22:02:54.042Z,18.87
2019-05-18T22:04:57.860Z,18.84
2019-05-18T22:07:01.683Z,18.82
2019-05-18T22:09:06.744Z,18.84
2019-05-18T22:11:10.569Z,18.86
2019-05-18T22:13:14.311Z,18.87
2019-05-18T22:15:18.468Z,18.89
2019-05-18T22:17:22.243Z,18.88
2019-05-18T22:19:27.053Z,18.84
2019-05-18T22:21:30.949Z,18.77
2019-05-18T22:23:34.764Z,18.71
2019-05-18T22:25:38.638Z,18.69
2019-05-18T22:27:42.527Z,18.61
2019-05-18T22:29:46.258Z,18.57
2019-05-18T22:31:50.079Z,18.54
2019-05-18T22:33:54.916Z,18.51
2019-05-18T22:35:59.720Z,18.49
2019-05-18T22:38:03.531Z,18.45
2019-05-18T22:40:07.555Z,18.46
2019-05-18T22:42:11.339Z,18.47
2019-05-18T22:44:15.180Z,18.47
2019-05-18T22:46:18.957Z,18.46
2019-05-18T22:48:23.777Z,18.44
2019-05-18T22:50:27.596Z,18.38
2019-05-18T22:52:31.395Z,18.35
2019-05-18T22:54:36.279Z,18.24
2019-05-18T22:56:40.101Z,18.11
2019-05-18T22:58:43.929Z,18.03
2019-05-18T23:00:47.725Z,18.04
2019-05-18T23:02:51.897Z,18.08
2019-05-18T23:04:55.630Z,18.10
2019-05-18T23:06:59.432Z,18.09
2019-05-18T23:09:04.046Z,18.04
2019-05-18T23:11:08.025Z,17.94
2019-05-18T23:13:12.801Z,17.91
2019-05-18T23:15:16.746Z,17.92
2019-05-18T23:17:21.546Z,17.93
2019-05-18T23:19:27.280Z,17.91
2019-05-18T23:21:31.086Z,17.81
2019-05-18T23:23:34.879Z,17.63
2019-05-18T23:25:38.748Z,17.54
2019-05-18T23:27:42.511Z,17.44
2019-05-18T23:29:46.297Z,17.32
2019-05-18T23:31:50.176Z,17.23
2019-05-18T23:33:54.006Z,17.12
2019-05-18T23:35:57.799Z,17.03
2019-05-18T23:38:02.617Z,16.96
2019-05-18T23:40:07.943Z,16.89
2019-05-18T23:42:11.759Z,16.83
2019-05-18T23:44:15.589Z,16.74
2019-05-18T23:46:19.371Z,16.70
2019-05-18T23:48:23.171Z,16.62
2019-05-18T23:50:26.974Z,16.55
2019-05-18T23:52:30.781Z,16.50
2019-05-18T23:54:34.666Z,16.44
2019-05-18T23:56:38.493Z,16.43
2019-05-18T23:58:42.304Z,16.40
